Time;durP1;ratioP1;P1;durP2;ratioP2;P2;SDS_P1;SDS_P2;PMS_P1;PMS_P2;Temp;Humidity;BMP_temperature;BMP_pressure;BME280_temperature;BME280_humidity;BME280_pressure;Samples;Min_cycle;Max_cycle;Signal;HPM_P1;HPM_P2
2022/02/18 00:02:11;;;;;;;19.58;4.32;;;;;;;;;;5094903;28;20197;-79
2022/02/18 00:04:38;;;;;;;17.92;3.97;;;;;;;;;;5098272;28;20574;-77
2022/02/18 00:07:05;;;;;;;17.50;4.10;;;;;;;;;;5103343;28;20262;-83
2022/02/18 00:09:33;;;;;;;7.20;2.92;;;;;;;;;;5109927;28;20199;-78
2022/02/18 00:12:00;;;;;;;9.38;4.00;;;;;;;;;;5111427;28;20220;-80
2022/02/18 00:14:27;;;;;;;18.27;4.47;;;;;;;;;;5104379;28;20193;-81
2022/02/18 00:16:54;;;;;;;9.75;3.50;;;;;;;;;;5091693;28;20204;-81
2022/02/18 00:19:23;;;;;;;17.63;4.38;;;;;;;;;;5106093;28;20676;-80
2022/02/18 00:21:50;;;;;;;18.35;4.18;;;;;;;;;;5111162;28;20196;-77
2022/02/18 00:24:17;;;;;;;12.27;3.75;;;;;;;;;;5108970;28;20201;-78
2022/02/18 00:26:44;;;;;;;13.40;3.33;;;;;;;;;;5099018;28;20213;-78
2022/02/18 00:29:12;;;;;;;14.57;3.90;;;;;;;;;;5082490;28;20191;-79
2022/02/18 00:31:39;;;;;;;16.33;3.63;;;;;;;;;;5105199;28;20215;-82
2022/02/18 00:34:06;;;;;;;17.15;4.38;;;;;;;;;;5109235;28;20184;-78
2022/02/18 00:36:34;;;;;;;14.00;3.33;;;;;;;;;;5110181;28;20193;-79
2022/02/18 00:39:01;;;;;;;26.00;5.40;;;;;;;;;;5108810;28;20192;-81
2022/02/18 00:41:29;;;;;;;12.20;3.47;;;;;;;;;;5104004;28;20224;-79
2022/02/18 00:43:56;;;;;;;17.77;4.00;;;;;;;;;;5097364;28;20190;-80
2022/02/18 00:46:23;;;;;;;14.70;3.85;;;;;;;;;;5092956;28;20236;-79
2022/02/18 00:48:50;;;;;;;16.15;4.30;;;;;;;;;;5093211;28;20193;-83
2022/02/18 00:51:17;;;;;;;17.35;4.35;;;;;;;;;;5110329;28;20232;-81
2022/02/18 00:53:46;;;;;;;20.88;4.35;;;;;;;;;;5097935;28;20208;-81
2022/02/18 00:56:13;;;;;;;17.95;4.45;;;;;;;;;;5078055;28;20685;-82
2022/02/18 00:58:40;;;;;;;9.80;3.17;;;;;;;;;;5109715;28;20201;-81
2022/02/18 01:01:08;;;;;;;12.73;3.50;;;;;;;;;;5098003;28;20213;-78
2022/02/18 01:03:35;;;;;;;9.60;3.33;;;;;;;;;;5098667;28;20258;-80
2022/02/18 01:06:03;;;;;;;8.60;3.83;;;;;;;;;;5108403;28;20201;-78
2022/02/18 01:08:30;;;;;;;13.95;3.67;;;;;;;;;;5106707;28;20275;-82
2022/02/18 01:10:58;;;;;;;17.33;4.72;;;;;;;;;;5109814;28;20213;-81
2022/02/18 01:13:25;;;;;;;11.10;4.22;;;;;;;;;;5110338;28;20671;-80
2022/02/18 01:15:52;;;;;;;12.98;3.40;;;;;;;;;;5106253;28;20196;-81
2022/02/18 01:18:21;;;;;;;18.13;3.90;;;;;;;;;;5101923;28;20194;-83
2022/02/18 01:20:48;;;;;;;14.60;3.70;;;;;;;;;;5100313;28;20547;-81
2022/02/18 01:23:15;;;;;;;18.75;3.92;;;;;;;;;;5074345;28;20566;-81
2022/02/18 01:25:43;;;;;;;12.18;3.72;;;;;;;;;;5090561;28;20551;-81
2022/02/18 01:28:12;;;;;;;14.80;5.10;;;;;;;;;;5094795;28;20300;-80
2022/02/18 01:30:39;;;;;;;9.73;3.13;;;;;;;;;;5106555;28;20213;-81
2022/02/18 01:33:06;;;;;;;9.90;3.40;;;;;;;;;;5093790;28;20443;-79
2022/02/18 01:35:34;;;;;;;15.32;3.80;;;;;;;;;;5108350;28;20797;-81
2022/02/18 01:38:02;;;;;;;16.05;3.97;;;;;;;;;;5103027;28;20309;-83
2022/02/18 01:40:29;;;;;;;11.75;3.75;;;;;;;;;;5105982;28;20299;-83
2022/02/18 01:42:57;;;;;;;12.55;3.63;;;;;;;;;;5110019;28;20228;-81
2022/02/18 01:45:25;;;;;;;24.02;4.40;;;;;;;;;;5113183;28;20526;-81
2022/02/18 01:47:52;;;;;;;13.98;4.95;;;;;;;;;;5102725;28;20616;-82
2022/02/18 01:50:19;;;;;;;12.20;3.10;;;;;;;;;;5103669;28;20252;-84
2022/02/18 01:52:48;;;;;;;18.17;3.85;;;;;;;;;;5089901;28;20189;-79
2022/02/18 01:55:16;;;;;;;18.95;4.63;;;;;;;;;;5083027;28;20275;-84
2022/02/18 01:57:45;;;;;;;9.30;3.20;;;;;;;;;;5101341;28;20190;-82
2022/02/18 02:00:13;;;;;;;10.45;3.28;;;;;;;;;;5082476;28;20221;-82
2022/02/18 02:02:42;;;;;;;13.27;3.22;;;;;;;;;;5104562;28;20200;-82
2022/02/18 02:05:09;;;;;;;16.83;3.58;;;;;;;;;;5112407;28;20197;-81
2022/02/18 02:07:36;;;;;;;12.05;3.58;;;;;;;;;;5113780;28;20220;-81
2022/02/18 02:10:04;;;;;;;12.25;3.42;;;;;;;;;;5110904;28;20236;-81
2022/02/18 02:12:31;;;;;;;10.45;3.10;;;;;;;;;;5114174;28;20192;-82
2022/02/18 02:14:58;;;;;;;12.05;2.95;;;;;;;;;;5114453;28;20200;-82
2022/02/18 02:17:25;;;;;;;11.30;4.30;;;;;;;;;;5114036;28;20664;-84
2022/02/18 02:19:53;;;;;;;15.43;4.35;;;;;;;;;;5105946;28;20470;-81
2022/02/18 02:22:26;;;;;;;13.52;3.47;;;;;;;;;;5097896;28;20189;-86
2022/02/18 02:24:53;;;;;;;16.90;4.17;;;;;;;;;;5104799;28;20209;-79
2022/02/18 02:27:22;;;;;;;11.47;4.27;;;;;;;;;;5110760;28;20481;-83
2022/02/18 02:29:49;;;;;;;15.20;4.15;;;;;;;;;;5112564;28;20463;-82
2022/02/18 02:32:17;;;;;;;12.23;3.97;;;;;;;;;;5112267;28;20196;-83
2022/02/18 02:34:44;;;;;;;15.87;3.87;;;;;;;;;;5097196;28;20455;-80
2022/02/18 02:37:11;;;;;;;10.95;3.78;;;;;;;;;;5108616;28;20473;-81
2022/02/18 02:39:40;;;;;;;15.27;3.93;;;;;;;;;;5101789;28;20208;-80
2022/02/18 02:42:08;;;;;;;15.00;3.70;;;;;;;;;;5104155;28;20439;-82
2022/02/18 02:44:35;;;;;;;18.90;3.90;;;;;;;;;;5095966;28;20449;-79
2022/02/18 02:47:03;;;;;;;15.90;4.40;;;;;;;;;;5111461;28;20474;-80
2022/02/18 02:49:31;;;;;;;13.73;3.90;;;;;;;;;;5100558;28;20456;-80
2022/02/18 02:51:58;;;;;;;11.87;3.63;;;;;;;;;;5094036;28;20443;-78
2022/02/18 02:54:25;;;;;;;13.47;3.90;;;;;;;;;;5118228;28;20474;-82
2022/02/18 02:56:55;;;;;;;14.10;4.07;;;;;;;;;;5085090;28;20462;-80
2022/02/18 02:59:22;;;;;;;14.25;3.65;;;;;;;;;;5099528;28;20446;-86
2022/02/18 03:01:50;;;;;;;13.30;3.33;;;;;;;;;;5092405;28;20216;-80
2022/02/18 03:04:17;;;;;;;8.80;2.27;;;;;;;;;;5111088;28;20241;-78
2022/02/18 03:06:44;;;;;;;14.10;3.47;;;;;;;;;;5112240;28;20439;-78
2022/02/18 03:09:12;;;;;;;9.33;3.30;;;;;;;;;;5112817;28;20442;-79
2022/02/18 03:11:39;;;;;;;15.67;2.80;;;;;;;;;;5101193;28;21030;-79
2022/02/18 03:14:07;;;;;;;11.80;3.10;;;;;;;;;;5102463;28;20477;-84
2022/02/18 03:16:34;;;;;;;14.23;3.17;;;;;;;;;;5097451;28;20455;-82
2022/02/18 03:19:02;;;;;;;17.00;4.30;;;;;;;;;;5092672;28;20591;-81
2022/02/18 03:21:29;;;;;;;11.18;3.00;;;;;;;;;;5104364;28;20569;-80
2022/02/18 03:23:56;;;;;;;13.27;3.57;;;;;;;;;;5106372;28;20194;-80
2022/02/18 03:26:23;;;;;;;15.00;3.63;;;;;;;;;;5091171;28;20501;-82
2022/02/18 03:28:50;;;;;;;8.73;2.63;;;;;;;;;;5093465;28;20470;-81
2022/02/18 03:31:19;;;;;;;10.10;2.97;;;;;;;;;;5093157;28;20475;-82
2022/02/18 03:33:46;;;;;;;15.00;3.20;;;;;;;;;;5101002;28;20438;-79
2022/02/18 03:36:13;;;;;;;13.60;2.93;;;;;;;;;;5101154;28;20477;-83
2022/02/18 03:38:40;;;;;;;12.27;3.87;;;;;;;;;;5104580;28;20473;-80
2022/02/18 03:41:08;;;;;;;6.10;2.97;;;;;;;;;;5111014;28;20458;-84
2022/02/18 03:43:35;;;;;;;11.20;3.47;;;;;;;;;;5092210;28;20920;-78
2022/02/18 03:46:02;;;;;;;8.57;3.60;;;;;;;;;;5087547;28;20453;-79
2022/02/18 03:48:32;;;;;;;18.00;3.90;;;;;;;;;;5096759;28;20231;-77
2022/02/18 03:51:00;;;;;;;14.33;3.80;;;;;;;;;;5099541;28;20994;-79
2022/02/18 03:53:27;;;;;;;11.10;3.73;;;;;;;;;;5100570;28;20793;-78
2022/02/18 03:55:55;;;;;;;19.27;4.40;;;;;;;;;;5106402;28;20490;-80
2022/02/18 03:58:22;;;;;;;19.97;6.10;;;;;;;;;;5100515;28;20513;-79
2022/02/18 04:00:49;;;;;;;18.07;5.10;;;;;;;;;;5095401;28;20555;-85
2022/02/18 04:03:16;;;;;;;15.70;5.03;;;;;;;;;;5098969;28;20843;-80
2022/02/18 04:05:45;;;;;;;14.50;4.80;;;;;;;;;;5097673;28;20458;-83
2022/02/18 04:08:12;;;;;;;15.43;5.50;;;;;;;;;;5105592;28;20495;-81
2022/02/18 04:10:39;;;;;;;17.00;4.67;;;;;;;;;;5111507;28;20477;-83
2022/02/18 04:13:06;;;;;;;21.75;4.97;;;;;;;;;;5103806;28;20432;-80
2022/02/18 04:15:34;;;;;;;15.77;5.20;;;;;;;;;;5099064;28;20204;-82
2022/02/18 04:18:01;;;;;;;12.17;4.40;;;;;;;;;;5092076;28;20530;-78
2022/02/18 04:20:29;;;;;;;15.50;4.47;;;;;;;;;;5109040;28;20462;-77
2022/02/18 04:22:57;;;;;;;9.30;3.38;;;;;;;;;;5111110;28;20195;-81
2022/02/18 04:25:24;;;;;;;14.43;3.58;;;;;;;;;;5108112;28;20192;-82
2022/02/18 04:27:53;;;;;;;13.63;3.60;;;;;;;;;;5098748;28;20224;-79
2022/02/18 04:30:21;;;;;;;6.87;2.83;;;;;;;;;;5112583;28;20463;-82
2022/02/18 04:32:48;;;;;;;12.18;3.15;;;;;;;;;;5111793;28;20838;-83
2022/02/18 04:35:15;;;;;;;7.73;2.57;;;;;;;;;;5102457;28;20558;-78
2022/02/18 04:37:42;;;;;;;9.90;3.07;;;;;;;;;;5098733;28;20451;-82
2022/02/18 04:40:12;;;;;;;10.23;2.78;;;;;;;;;;5106550;28;20458;-83
2022/02/18 04:42:39;;;;;;;11.83;2.70;;;;;;;;;;5109845;28;20185;-82
2022/02/18 04:45:07;;;;;;;12.33;3.37;;;;;;;;;;5108819;28;20435;-85
2022/02/18 04:47:34;;;;;;;12.00;2.92;;;;;;;;;;5092371;28;20469;-82
2022/02/18 04:50:01;;;;;;;13.30;3.17;;;;;;;;;;5108996;28;20235;-77
2022/02/18 04:52:28;;;;;;;12.87;4.40;;;;;;;;;;5104251;28;20212;-81
2022/02/18 04:54:55;;;;;;;13.07;3.20;;;;;;;;;;5099651;28;20438;-80
2022/02/18 04:57:23;;;;;;;6.20;2.80;;;;;;;;;;5105311;28;20278;-80
2022/02/18 04:59:51;;;;;;;11.10;3.27;;;;;;;;;;5092728;28;20478;-81
2022/02/18 05:02:18;;;;;;;11.33;3.47;;;;;;;;;;5104913;28;20447;-80
2022/02/18 05:04:45;;;;;;;16.30;3.60;;;;;;;;;;5109726;28;20442;-82
2022/02/18 05:07:12;;;;;;;9.47;3.33;;;;;;;;;;5106173;28;20196;-78
2022/02/18 05:09:39;;;;;;;12.40;3.23;;;;;;;;;;5093868;28;20474;-81
2022/02/18 05:12:06;;;;;;;8.73;3.00;;;;;;;;;;5098503;28;21115;-83
2022/02/18 05:14:35;;;;;;;11.90;2.97;;;;;;;;;;5100223;28;20439;-81
2022/02/18 05:17:02;;;;;;;10.87;3.30;;;;;;;;;;5111846;28;20530;-78
2022/02/18 05:19:29;;;;;;;11.82;2.85;;;;;;;;;;5112148;28;20518;-80
2022/02/18 05:21:56;;;;;;;5.40;3.20;;;;;;;;;;5110594;28;20200;-78
2022/02/18 05:24:23;;;;;;;11.17;3.20;;;;;;;;;;5111430;28;20438;-82
2022/02/18 05:26:50;;;;;;;14.77;3.70;;;;;;;;;;5110243;28;20462;-79
2022/02/18 05:29:17;;;;;;;8.80;2.40;;;;;;;;;;5101344;28;20583;-79
2022/02/18 05:31:46;;;;;;;13.10;3.67;;;;;;;;;;5097744;28;20441;-80
2022/02/18 05:34:13;;;;;;;7.90;2.30;;;;;;;;;;5108298;28;20439;-81
2022/02/18 05:36:40;;;;;;;9.80;3.10;;;;;;;;;;5100256;28;20466;-80
2022/02/18 05:39:07;;;;;;;8.63;3.90;;;;;;;;;;5105599;28;20484;-80
2022/02/18 05:41:34;;;;;;;16.48;3.50;;;;;;;;;;5109534;28;20469;-80
2022/02/18 05:44:02;;;;;;;14.60;3.00;;;;;;;;;;5097289;28;20284;-80
2022/02/18 05:46:29;;;;;;;16.00;3.70;;;;;;;;;;5102510;28;20196;-80
2022/02/18 05:48:57;;;;;;;16.53;3.17;;;;;;;;;;5099107;28;20806;-80
2022/02/18 05:51:24;;;;;;;11.95;3.40;;;;;;;;;;5097781;28;20481;-83
2022/02/18 05:53:51;;;;;;;11.40;3.43;;;;;;;;;;5110975;28;20193;-81
2022/02/18 05:56:18;;;;;;;15.35;3.45;;;;;;;;;;5109718;28;20442;-79
2022/02/18 05:58:46;;;;;;;14.40;5.10;;;;;;;;;;5110183;28;20188;-81
2022/02/18 06:01:14;;;;;;;13.33;3.27;;;;;;;;;;5109858;28;20534;-80
2022/02/18 06:03:41;;;;;;;16.95;3.83;;;;;;;;;;5111351;28;20498;-84
2022/02/18 06:06:09;;;;;;;14.87;3.70;;;;;;;;;;5095841;28;20567;-81
2022/02/18 06:08:36;;;;;;;18.50;4.20;;;;;;;;;;5097611;28;20471;-81
2022/02/18 06:11:04;;;;;;;14.43;3.50;;;;;;;;;;5096841;28;20475;-82
2022/02/18 06:13:31;;;;;;;22.63;4.80;;;;;;;;;;5101993;28;20439;-78
2022/02/18 06:15:58;;;;;;;14.85;4.35;;;;;;;;;;5111955;28;20193;-82
2022/02/18 06:18:25;;;;;;;12.27;4.50;;;;;;;;;;5111935;28;20199;-77
2022/02/18 06:20:52;;;;;;;20.83;4.40;;;;;;;;;;5111530;28;20454;-82
2022/02/18 06:23:20;;;;;;;10.30;3.40;;;;;;;;;;5091998;28;20439;-83
2022/02/18 06:25:48;;;;;;;20.10;4.53;;;;;;;;;;5106068;28;20705;-83
2022/02/18 06:28:15;;;;;;;15.63;3.90;;;;;;;;;;5114628;28;20213;-80
2022/02/18 06:30:42;;;;;;;19.65;4.47;;;;;;;;;;5108676;28;20647;-82
2022/02/18 06:33:10;;;;;;;21.08;4.70;;;;;;;;;;5100455;28;20624;-80
2022/02/18 06:35:39;;;;;;;13.38;4.40;;;;;;;;;;5096318;28;20198;-79
2022/02/18 06:38:07;;;;;;;15.10;4.10;;;;;;;;;;5098153;28;20848;-80
2022/02/18 06:40:35;;;;;;;24.08;4.72;;;;;;;;;;5093372;28;20221;-82
2022/02/18 06:43:03;;;;;;;20.75;4.15;;;;;;;;;;5112332;28;20205;-81
2022/02/18 06:45:30;;;;;;;15.32;4.20;;;;;;;;;;5095109;28;20190;-81
2022/02/18 06:47:57;;;;;;;24.75;4.50;;;;;;;;;;5098795;28;20202;-81
2022/02/18 06:50:24;;;;;;;16.35;4.70;;;;;;;;;;5097803;28;20225;-79
2022/02/18 06:52:51;;;;;;;11.30;3.78;;;;;;;;;;5096176;28;20202;-77
2022/02/18 06:55:21;;;;;;;19.85;5.22;;;;;;;;;;5094758;28;20184;-82
2022/02/18 06:57:51;;;;;;;20.05;4.18;;;;;;;;;;5094994;28;20652;-80
2022/02/18 07:00:18;;;;;;;15.07;3.63;;;;;;;;;;5111955;28;20594;-81
2022/02/18 07:02:46;;;;;;;22.35;4.78;;;;;;;;;;5111773;28;20204;-75
2022/02/18 07:05:14;;;;;;;21.15;4.65;;;;;;;;;;5101921;28;20273;-76
2022/02/18 07:07:41;;;;;;;10.65;4.63;;;;;;;;;;5101610;28;20209;-77
2022/02/18 07:10:09;;;;;;;22.80;4.95;;;;;;;;;;5110380;28;20220;-77
2022/02/18 07:12:37;;;;;;;17.38;4.20;;;;;;;;;;5112024;28;20197;-78
2022/02/18 07:15:06;;;;;;;18.60;4.43;;;;;;;;;;5094575;28;20657;-75
2022/02/18 07:17:33;;;;;;;21.95;4.75;;;;;;;;;;5094764;28;20530;-74
2022/02/18 07:20:01;;;;;;;23.15;4.75;;;;;;;;;;5094019;28;20220;-78
2022/02/18 07:22:28;;;;;;;17.92;3.67;;;;;;;;;;5097083;28;20200;-77
2022/02/18 07:24:56;;;;;;;12.90;4.20;;;;;;;;;;5099559;28;20907;-83
2022/02/18 07:27:23;;;;;;;16.43;3.83;;;;;;;;;;5103300;28;20201;-80
2022/02/18 07:29:51;;;;;;;17.40;4.18;;;;;;;;;;5111233;28;20496;-77
2022/02/18 07:32:20;;;;;;;17.58;4.38;;;;;;;;;;5111438;28;20675;-80
2022/02/18 07:34:47;;;;;;;13.80;4.30;;;;;;;;;;5111444;28;21167;-79
2022/02/18 07:37:14;;;;;;;17.70;4.70;;;;;;;;;;5100811;28;20459;-78
2022/02/18 07:39:42;;;;;;;10.90;3.43;;;;;;;;;;5096571;28;20478;-77
2022/02/18 07:42:09;;;;;;;18.60;4.80;;;;;;;;;;5102193;28;20490;-79
2022/02/18 07:44:37;;;;;;;19.90;4.57;;;;;;;;;;5108092;28;20459;-77
2022/02/18 07:47:04;;;;;;;19.03;4.67;;;;;;;;;;5092808;28;20434;-76
2022/02/18 07:49:32;;;;;;;16.93;4.00;;;;;;;;;;5110050;28;20826;-77
2022/02/18 07:52:00;;;;;;;21.33;4.97;;;;;;;;;;5110530;28;20442;-76
2022/02/18 07:54:27;;;;;;;16.07;4.10;;;;;;;;;;5093226;28;20452;-76
2022/02/18 07:56:54;;;;;;;13.77;4.13;;;;;;;;;;5109953;28;20459;-76
2022/02/18 07:59:21;;;;;;;23.53;5.47;;;;;;;;;;5112834;28;20439;-76
2022/02/18 08:01:48;;;;;;;14.90;3.90;;;;;;;;;;5105398;28;20922;-76
2022/02/18 08:04:15;;;;;;;15.83;5.00;;;;;;;;;;5099551;28;20458;-76
2022/02/18 08:06:44;;;;;;;16.63;3.90;;;;;;;;;;5105698;28;20450;-76
2022/02/18 08:09:11;;;;;;;15.53;3.90;;;;;;;;;;5110980;28;20470;-76
2022/02/18 08:11:38;;;;;;;14.83;4.93;;;;;;;;;;5094496;28;20475;-76
2022/02/18 08:14:05;;;;;;;14.70;4.00;;;;;;;;;;5103238;28;20949;-76
2022/02/18 08:16:32;;;;;;;11.07;3.83;;;;;;;;;;5105744;28;20458;-77
2022/02/18 08:18:59;;;;;;;15.73;4.43;;;;;;;;;;5096469;28;20462;-77
2022/02/18 08:21:27;;;;;;;14.33;4.43;;;;;;;;;;5110134;28;20454;-75
2022/02/18 08:23:55;;;;;;;9.07;3.43;;;;;;;;;;5097220;28;20446;-75
2022/02/18 08:26:23;;;;;;;14.83;3.60;;;;;;;;;;5097169;28;20451;-77
2022/02/18 08:28:50;;;;;;;10.87;3.40;;;;;;;;;;5104961;28;20477;-76
2022/02/18 08:31:18;;;;;;;9.07;3.40;;;;;;;;;;5110820;28;20459;-76
2022/02/18 08:33:45;;;;;;;13.67;4.00;;;;;;;;;;5109919;28;20442;-76
2022/02/18 08:36:12;;;;;;;13.60;4.03;;;;;;;;;;5092670;28;20449;-76
2022/02/18 08:38:41;;;;;;;13.50;3.60;;;;;;;;;;5108213;28;20454;-77
2022/02/18 08:41:10;;;;;;;7.80;2.73;;;;;;;;;;5110082;28;20486;-77
2022/02/18 08:43:37;;;;;;;13.63;3.50;;;;;;;;;;5111848;28;20459;-76
2022/02/18 08:46:04;;;;;;;8.03;3.07;;;;;;;;;;5110067;28;21382;-82
2022/02/18 08:48:31;;;;;;;15.67;4.33;;;;;;;;;;5096677;28;20948;-80
2022/02/18 08:50:59;;;;;;;7.53;3.37;;;;;;;;;;5101327;28;20834;-78
2022/02/18 08:53:27;;;;;;;12.40;3.50;;;;;;;;;;5103752;28;20933;-76
2022/02/18 08:55:54;;;;;;;8.80;3.10;;;;;;;;;;5090020;28;20810;-82
2022/02/18 08:58:22;;;;;;;15.23;4.00;;;;;;;;;;5089816;28;20465;-78
2022/02/18 09:00:50;;;;;;;13.07;3.13;;;;;;;;;;5100076;28;20549;-78
2022/02/18 09:03:17;;;;;;;6.47;3.03;;;;;;;;;;5110418;28;20457;-79
2022/02/18 09:05:44;;;;;;;8.33;2.90;;;;;;;;;;5095969;28;20462;-81
2022/02/18 09:08:13;;;;;;;8.47;2.43;;;;;;;;;;5096291;28;20442;-81
2022/02/18 09:10:41;;;;;;;4.40;2.00;;;;;;;;;;5081309;28;20493;-81
2022/02/18 09:13:08;;;;;;;4.20;2.37;;;;;;;;;;5102687;28;20436;-81
2022/02/18 09:15:37;;;;;;;5.00;2.40;;;;;;;;;;5101862;28;20825;-79
2022/02/18 09:18:04;;;;;;;4.47;2.50;;;;;;;;;;5103327;28;20455;-83
2022/02/18 09:20:33;;;;;;;6.33;2.50;;;;;;;;;;5098257;28;20486;-78
2022/02/18 09:23:00;;;;;;;7.13;2.20;;;;;;;;;;5099568;28;20440;-79
2022/02/18 09:25:27;;;;;;;4.07;2.10;;;;;;;;;;5102020;28;20431;-79
2022/02/18 09:27:55;;;;;;;3.10;1.87;;;;;;;;;;5104056;28;20453;-77
2022/02/18 09:30:22;;;;;;;2.50;1.63;;;;;;;;;;5109498;28;20555;-79
2022/02/18 09:32:50;;;;;;;3.27;1.63;;;;;;;;;;5110790;28;20442;-76
2022/02/18 09:35:17;;;;;;;2.53;1.70;;;;;;;;;;5095971;28;20807;-76
2022/02/18 09:37:44;;;;;;;3.43;1.30;;;;;;;;;;5109273;28;20516;-78
2022/02/18 09:40:14;;;;;;;3.40;1.70;;;;;;;;;;5099732;28;21096;-79
2022/02/18 09:42:42;;;;;;;1.73;1.33;;;;;;;;;;5096939;28;20430;-77
2022/02/18 09:45:12;;;;;;;2.13;1.47;;;;;;;;;;5093137;28;20467;-78
2022/02/18 09:47:41;;;;;;;2.10;1.30;;;;;;;;;;5072596;28;20446;-78
2022/02/18 09:50:10;;;;;;;4.03;2.33;;;;;;;;;;5105874;28;20832;-79
2022/02/18 09:52:37;;;;;;;2.47;1.50;;;;;;;;;;5114310;28;20442;-78
2022/02/18 09:55:04;;;;;;;1.87;1.10;;;;;;;;;;5111305;28;20811;-77
2022/02/18 09:57:32;;;;;;;2.50;1.33;;;;;;;;;;5088422;28;20463;-80
2022/02/18 09:59:59;;;;;;;1.63;1.40;;;;;;;;;;5101384;28;20455;-82
2022/02/18 10:02:26;;;;;;;2.23;1.93;;;;;;;;;;5106299;28;20465;-82
2022/02/18 10:04:53;;;;;;;2.03;1.53;;;;;;;;;;5103434;28;20455;-78
2022/02/18 10:07:31;;;;;;;2.93;1.63;;;;;;;;;;5093629;28;20946;-86
2022/02/18 10:09:59;;;;;;;2.83;1.47;;;;;;;;;;5093352;28;20478;-84
2022/02/18 10:12:34;;;;;;;1.63;1.27;;;;;;;;;;5102444;28;20936;-77
2022/02/18 10:15:07;;;;;;;3.00;1.40;;;;;;;;;;5096305;28;20504;-80
2022/02/18 10:17:42;;;;;;;4.20;1.50;;;;;;;;;;5102312;28;20461;-81
2022/02/18 10:20:14;;;;;;;2.70;1.60;;;;;;;;;;5080746;28;20466;-77
2022/02/18 10:22:54;;;;;;;2.33;1.50;;;;;;;;;;5099955;28;20437;-78
2022/02/18 10:25:24;;;;;;;1.67;1.30;;;;;;;;;;5108538;28;20818;-79
2022/02/18 10:27:51;;;;;;;1.80;1.13;;;;;;;;;;5094290;28;20442;-80
2022/02/18 10:30:22;;;;;;;2.90;1.30;;;;;;;;;;5108848;28;20487;-79
2022/02/18 10:32:49;;;;;;;1.77;1.10;;;;;;;;;;5093955;28;20450;-79
2022/02/18 10:35:17;;;;;;;1.50;1.20;;;;;;;;;;5081962;28;20463;-78
2022/02/18 10:37:50;;;;;;;2.27;1.00;;;;;;;;;;5107608;28;20522;-81
2022/02/18 10:40:18;;;;;;;1.40;1.17;;;;;;;;;;5077631;28;20975;-82
2022/02/18 10:42:46;;;;;;;3.40;1.10;;;;;;;;;;5099307;28;20448;-79
2022/02/18 10:45:14;;;;;;;1.60;1.07;;;;;;;;;;5102140;28;21395;-78
2022/02/18 10:47:42;;;;;;;1.30;1.10;;;;;;;;;;5099323;28;21152;-82
2022/02/18 10:50:18;;;;;;;2.50;1.50;;;;;;;;;;5112662;28;20488;-78
2022/02/18 10:53:05;;;;;;;1.20;1.03;;;;;;;;;;5113046;28;20453;-83
2022/02/18 10:55:47;;;;;;;2.43;1.30;;;;;;;;;;5096465;28;20973;-82
2022/02/18 10:58:15;;;;;;;1.70;1.10;;;;;;;;;;5110985;28;20460;-79
2022/02/18 11:00:42;;;;;;;7.80;1.30;;;;;;;;;;5102604;28;20527;-82
2022/02/18 11:03:09;;;;;;;2.53;1.37;;;;;;;;;;5099793;28;20488;-78
2022/02/18 11:05:37;;;;;;;1.60;1.40;;;;;;;;;;5111720;28;20818;-80
2022/02/18 11:08:05;;;;;;;1.77;1.47;;;;;;;;;;5111711;28;20446;-78
2022/02/18 11:10:34;;;;;;;2.70;1.40;;;;;;;;;;5110982;28;20495;-78
2022/02/18 11:13:02;;;;;;;1.30;1.10;;;;;;;;;;5110755;28;20439;-79
2022/02/18 11:15:29;;;;;;;1.30;1.10;;;;;;;;;;5082532;28;20472;-79
2022/02/18 11:17:57;;;;;;;1.20;1.10;;;;;;;;;;5086431;28;20447;-80
2022/02/18 11:20:25;;;;;;;2.67;1.23;;;;;;;;;;5098679;28;20453;-79
2022/02/18 11:22:53;;;;;;;1.30;1.00;;;;;;;;;;5107450;28;20445;-77
2022/02/18 11:25:21;;;;;;;2.53;1.23;;;;;;;;;;5105584;28;20452;-79
2022/02/18 11:27:49;;;;;;;1.63;0.90;;;;;;;;;;5104446;28;20461;-75
2022/02/18 11:30:16;;;;;;;1.33;0.90;;;;;;;;;;5113000;28;20515;-78
2022/02/18 11:32:50;;;;;;;2.60;1.10;;;;;;;;;;5105063;28;21003;-80
2022/02/18 11:35:23;;;;;;;1.10;1.00;;;;;;;;;;5099423;28;20467;-79
2022/02/18 11:38:02;;;;;;;1.70;1.50;;;;;;;;;;5103043;28;20450;-77
2022/02/18 11:40:35;;;;;;;2.70;1.40;;;;;;;;;;5110672;28;21097;-78
2022/02/18 11:43:16;;;;;;;2.30;1.80;;;;;;;;;;5107910;28;20449;-78
2022/02/18 11:45:43;;;;;;;1.97;1.60;;;;;;;;;;5110548;28;20446;-78
2022/02/18 11:48:33;;;;;;;2.87;1.97;;;;;;;;;;5112195;28;20449;-79
2022/02/18 11:51:07;;;;;;;2.13;1.63;;;;;;;;;;5080918;28;20494;-79
2022/02/18 11:53:38;;;;;;;1.10;1.00;;;;;;;;;;5079609;28;20457;-79
2022/02/18 11:56:06;;;;;;;1.83;1.47;;;;;;;;;;5085477;28;20472;-78
2022/02/18 11:58:48;;;;;;;1.60;1.20;;;;;;;;;;5089846;28;20453;-78
2022/02/18 12:01:15;;;;;;;1.80;1.57;;;;;;;;;;5089952;28;20455;-81
2022/02/18 12:03:42;;;;;;;1.60;1.30;;;;;;;;;;5090671;28;20443;-78
2022/02/18 12:06:12;;;;;;;4.90;1.63;;;;;;;;;;5076396;28;20554;-80
2022/02/18 12:08:40;;;;;;;1.47;1.30;;;;;;;;;;5079981;28;20547;-78
2022/02/18 12:11:09;;;;;;;1.30;0.90;;;;;;;;;;5075543;28;20561;-77
2022/02/18 12:13:51;;;;;;;3.30;1.30;;;;;;;;;;5085677;28;20449;-77
2022/02/18 12:16:20;;;;;;;1.33;1.23;;;;;;;;;;5082535;28;21155;-78
2022/02/18 12:19:02;;;;;;;1.60;1.17;;;;;;;;;;5069817;28;20470;-79
2022/02/18 12:21:29;;;;;;;1.73;1.07;;;;;;;;;;5073904;28;20486;-77
2022/02/18 12:23:57;;;;;;;2.90;1.10;;;;;;;;;;5083696;28;20472;-79
2022/02/18 12:26:25;;;;;;;3.73;1.00;;;;;;;;;;5080297;28;20462;-79
2022/02/18 12:28:53;;;;;;;4.67;1.07;;;;;;;;;;5070090;28;20444;-79
2022/02/18 12:31:23;;;;;;;1.20;0.90;;;;;;;;;;5080195;28;20482;-78
2022/02/18 12:33:50;;;;;;;2.30;1.00;;;;;;;;;;5077288;28;20455;-78
2022/02/18 12:48:12;;;;;;;1.00;0.80;;;;;;;;;;4988051;28;20509;-83
2022/02/18 12:59:04;;;;;;;3.00;1.00;;;;;;;;;;5073376;28;20488;-80
2022/02/18 13:02:09;;;;;;;;;;;;;;;;;;;;;
2022/02/18 13:10:48;;;;;;;1.30;1.20;;;;;;;;;;5395663;22;20605;-81
2022/02/18 13:13:19;;;;;;;1.60;1.30;;;;;;;;;;5062351;28;21153;-82
2022/02/18 13:15:46;;;;;;;1.20;0.97;;;;;;;;;;5067163;28;20456;-81
2022/02/18 13:18:22;;;;;;;5.30;1.50;;;;;;;;;;5085571;28;20465;-81
2022/02/18 13:20:53;;;;;;;2.53;1.20;;;;;;;;;;5069953;28;20467;-77
2022/02/18 13:23:21;;;;;;;1.27;0.90;;;;;;;;;;5077048;28;20459;-84
2022/02/18 13:25:51;;;;;;;1.57;1.20;;;;;;;;;;5092069;28;20442;-85
2022/02/18 13:28:20;;;;;;;1.70;1.00;;;;;;;;;;5090965;28;20452;-85
2022/02/18 13:30:48;;;;;;;2.37;2.00;;;;;;;;;;5090530;28;21313;-82
2022/02/18 13:33:16;;;;;;;2.20;1.60;;;;;;;;;;5091038;28;20517;-80
2022/02/18 13:35:55;;;;;;;3.10;1.53;;;;;;;;;;5093549;28;20453;-82
2022/02/18 13:38:24;;;;;;;1.60;1.30;;;;;;;;;;5077178;28;20859;-81
2022/02/18 13:41:06;;;;;;;1.50;1.40;;;;;;;;;;5093918;28;20554;-81
2022/02/18 13:43:49;;;;;;;2.90;1.50;;;;;;;;;;5072542;28;20450;-81
2022/02/18 13:46:25;;;;;;;2.00;1.07;;;;;;;;;;5072009;28;20468;-82
2022/02/18 13:48:53;;;;;;;1.87;1.20;;;;;;;;;;5072638;28;20438;-81
2022/02/18 13:51:21;;;;;;;1.50;1.37;;;;;;;;;;5092843;28;20490;-81
2022/02/18 13:57:20;;;;;;;;;;;;;;;;;;;;;
2022/02/18 14:02:53;;;;;;;1.77;0.93;;;;;;;;;;5088584;28;20445;-80
2022/02/18 14:05:27;;;;;;;1.40;1.00;;;;;;;;;;5089895;28;20934;-82
2022/02/18 14:08:09;;;;;;;2.30;1.27;;;;;;;;;;5087339;28;20446;-81
2022/02/18 14:10:46;;;;;;;1.60;1.17;;;;;;;;;;5053896;28;20545;-82
2022/02/18 14:13:21;;;;;;;1.50;1.10;;;;;;;;;;5072389;28;20458;-81
2022/02/18 14:16:03;;;;;;;1.63;1.10;;;;;;;;;;5072471;28;20862;-82
2022/02/18 14:18:32;;;;;;;1.20;0.90;;;;;;;;;;5074254;28;20463;-82
2022/02/18 14:21:00;;;;;;;2.47;1.00;;;;;;;;;;5088978;28;20459;-82
2022/02/18 14:23:31;;;;;;;1.97;1.10;;;;;;;;;;5089429;28;20443;-81
2022/02/18 14:25:58;;;;;;;1.80;1.10;;;;;;;;;;5090809;28;20771;-83
2022/02/18 14:28:52;;;;;;;1.57;1.13;;;;;;;;;;5091709;28;20443;-82
2022/02/18 14:34:24;;;;;;;1.33;1.07;;;;;;;;;;5057975;28;20456;-85
2022/02/18 14:37:00;;;;;;;3.10;2.00;;;;;;;;;;5076973;28;20487;-78
2022/02/18 14:42:33;;;;;;;7.87;4.00;;;;;;;;;;5065366;28;20429;-84
2022/02/18 14:48:02;;;;;;;5.50;2.40;;;;;;;;;;4981848;28;20954;-79
2022/02/18 14:50:53;;;;;;;5.40;2.00;;;;;;;;;;5041955;28;20475;-80
2022/02/18 14:53:22;;;;;;;4.40;2.50;;;;;;;;;;5072834;28;20451;-79
2022/02/18 14:55:49;;;;;;;2.10;1.50;;;;;;;;;;5080732;28;20814;-79
2022/02/18 14:58:16;;;;;;;5.80;2.20;;;;;;;;;;5080208;28;20552;-80
2022/02/18 15:00:45;;;;;;;2.17;1.90;;;;;;;;;;5093147;28;20454;-78
2022/02/18 15:03:12;;;;;;;8.07;2.37;;;;;;;;;;5075745;28;20446;-77
2022/02/18 15:05:40;;;;;;;3.23;1.30;;;;;;;;;;5089251;28;20427;-84
2022/02/18 15:08:08;;;;;;;3.70;1.33;;;;;;;;;;5086717;28;20512;-79
2022/02/18 15:10:36;;;;;;;4.50;1.30;;;;;;;;;;5063096;28;20494;-80
2022/02/18 15:13:06;;;;;;;5.73;2.97;;;;;;;;;;5076621;28;20455;-80
2022/02/18 15:15:33;;;;;;;2.47;1.50;;;;;;;;;;5059376;28;20475;-79
2022/02/18 15:18:02;;;;;;;2.30;1.10;;;;;;;;;;5080359;28;21015;-80
2022/02/18 15:20:29;;;;;;;3.53;1.00;;;;;;;;;;5086964;28;20483;-80
2022/02/18 15:22:56;;;;;;;4.60;1.10;;;;;;;;;;5086811;28;20435;-81
2022/02/18 15:25:23;;;;;;;1.40;1.00;;;;;;;;;;5087902;28;20486;-78
2022/02/18 15:27:51;;;;;;;4.03;1.70;;;;;;;;;;5085868;28;20460;-81
2022/02/18 15:35:41;;;;;;;1.80;1.40;;;;;;;;;;5085446;28;20449;-80